sensor_id;sensor_type;location;lat;lon;timestamp;P1;durP1;ratioP1;P2;durP2;ratioP2
23140;SDS011;11739;54.750;9.124;2023-05-17T00:02:02;8.85;;;2.53;;
23140;SDS011;11739;54.750;9.124;2023-05-17T00:04:28;6.38;;;1.98;;
23140;SDS011;11739;54.750;9.124;2023-05-17T00:06:53;9.70;;;2.10;;
23140;SDS011;11739;54.750;9.124;2023-05-17T00:09:18;7.78;;;2.25;;
23140;SDS011;11739;54.750;9.124;2023-05-17T00:11:44;8.90;;;2.70;;
23140;SDS011;11739;54.750;9.124;2023-05-17T00:14:09;9.55;;;2.50;;
23140;SDS011;11739;54.750;9.124;2023-05-17T00:16:35;7.03;;;2.42;;
23140;SDS011;11739;54.750;9.124;2023-05-17T00:19:00;8.10;;;2.67;;
23140;SDS011;11739;54.750;9.124;2023-05-17T00:21:25;9.98;;;2.60;;
23140;SDS011;11739;54.750;9.124;2023-05-17T00:23:51;9.38;;;2.63;;
23140;SDS011;11739;54.750;9.124;2023-05-17T00:26:16;12.77;;;3.22;;
23140;SDS011;11739;54.750;9.124;2023-05-17T00:28:41;10.38;;;3.42;;
23140;SDS011;11739;54.750;9.124;2023-05-17T00:31:06;10.90;;;3.15;;
23140;SDS011;11739;54.750;9.124;2023-05-17T00:33:32;11.88;;;3.40;;
23140;SDS011;11739;54.750;9.124;2023-05-17T00:35:57;11.02;;;3.20;;
23140;SDS011;11739;54.750;9.124;2023-05-17T00:38:22;10.05;;;2.85;;
23140;SDS011;11739;54.750;9.124;2023-05-17T00:40:48;14.10;;;3.78;;
23140;SDS011;11739;54.750;9.124;2023-05-17T00:43:14;12.50;;;3.53;;
23140;SDS011;11739;54.750;9.124;2023-05-17T00:45:39;13.07;;;3.55;;
23140;SDS011;11739;54.750;9.124;2023-05-17T00:48:04;9.88;;;3.20;;
23140;SDS011;11739;54.750;9.124;2023-05-17T00:50:30;9.77;;;3.50;;
23140;SDS011;11739;54.750;9.124;2023-05-17T00:52:55;11.27;;;3.53;;
23140;SDS011;11739;54.750;9.124;2023-05-17T00:55:20;13.63;;;3.90;;
23140;SDS011;11739;54.750;9.124;2023-05-17T00:57:46;10.20;;;3.40;;
23140;SDS011;11739;54.750;9.124;2023-05-17T01:00:12;12.13;;;3.38;;
23140;SDS011;11739;54.750;9.124;2023-05-17T01:02:37;12.43;;;3.15;;
23140;SDS011;11739;54.750;9.124;2023-05-17T01:05:03;16.88;;;3.85;;
23140;SDS011;11739;54.750;9.124;2023-05-17T01:07:28;17.50;;;3.88;;
23140;SDS011;11739;54.750;9.124;2023-05-17T01:09:54;15.38;;;3.55;;
23140;SDS011;11739;54.750;9.124;2023-05-17T01:20:42;11.35;;;3.28;;
23140;SDS011;11739;54.750;9.124;2023-05-17T01:23:30;12.38;;;3.47;;
23140;SDS011;11739;54.750;9.124;2023-05-17T01:26:09;11.45;;;3.33;;
23140;SDS011;11739;54.750;9.124;2023-05-17T01:28:39;9.40;;;3.25;;
23140;SDS011;11739;54.750;9.124;2023-05-17T01:31:05;11.60;;;3.38;;
23140;SDS011;11739;54.750;9.124;2023-05-17T01:33:31;12.40;;;2.92;;
23140;SDS011;11739;54.750;9.124;2023-05-17T01:35:56;10.13;;;2.95;;
23140;SDS011;11739;54.750;9.124;2023-05-17T01:38:22;12.02;;;3.20;;
23140;SDS011;11739;54.750;9.124;2023-05-17T01:40:51;13.00;;;2.72;;
23140;SDS011;11739;54.750;9.124;2023-05-17T01:43:21;8.82;;;2.53;;
23140;SDS011;11739;54.750;9.124;2023-05-17T01:45:56;10.23;;;2.92;;
23140;SDS011;11739;54.750;9.124;2023-05-17T01:48:35;11.60;;;3.45;;
23140;SDS011;11739;54.750;9.124;2023-05-17T01:51:03;8.68;;;2.72;;
23140;SDS011;11739;54.750;9.124;2023-05-17T01:53:29;15.43;;;3.03;;
23140;SDS011;11739;54.750;9.124;2023-05-17T01:56:01;8.80;;;3.08;;
23140;SDS011;11739;54.750;9.124;2023-05-17T01:58:28;9.82;;;2.88;;
23140;SDS011;11739;54.750;9.124;2023-05-17T02:00:54;9.82;;;2.60;;
23140;SDS011;11739;54.750;9.124;2023-05-17T02:03:20;7.13;;;2.67;;
23140;SDS011;11739;54.750;9.124;2023-05-17T02:05:45;7.25;;;2.47;;
23140;SDS011;11739;54.750;9.124;2023-05-17T02:08:11;8.25;;;2.63;;
23140;SDS011;11739;54.750;9.124;2023-05-17T02:10:37;10.70;;;2.67;;
23140;SDS011;11739;54.750;9.124;2023-05-17T02:13:03;8.85;;;2.40;;
23140;SDS011;11739;54.750;9.124;2023-05-17T02:15:28;10.57;;;2.70;;
23140;SDS011;11739;54.750;9.124;2023-05-17T02:17:54;8.52;;;2.72;;
23140;SDS011;11739;54.750;9.124;2023-05-17T02:20:19;7.70;;;2.55;;
23140;SDS011;11739;54.750;9.124;2023-05-17T02:22:44;9.10;;;2.67;;
23140;SDS011;11739;54.750;9.124;2023-05-17T02:25:09;7.82;;;2.60;;
23140;SDS011;11739;54.750;9.124;2023-05-17T02:27:35;11.38;;;2.55;;
23140;SDS011;11739;54.750;9.124;2023-05-17T02:30:00;7.22;;;2.40;;
23140;SDS011;11739;54.750;9.124;2023-05-17T02:32:26;7.28;;;2.58;;
23140;SDS011;11739;54.750;9.124;2023-05-17T02:34:52;7.93;;;2.55;;
23140;SDS011;11739;54.750;9.124;2023-05-17T02:37:17;7.45;;;2.33;;
23140;SDS011;11739;54.750;9.124;2023-05-17T02:39:42;7.35;;;2.45;;
23140;SDS011;11739;54.750;9.124;2023-05-17T02:42:08;7.35;;;2.45;;
23140;SDS011;11739;54.750;9.124;2023-05-17T02:44:33;7.45;;;2.35;;
23140;SDS011;11739;54.750;9.124;2023-05-17T02:46:58;7.60;;;2.30;;
23140;SDS011;11739;54.750;9.124;2023-05-17T02:49:24;10.38;;;2.40;;
23140;SDS011;11739;54.750;9.124;2023-05-17T02:51:49;7.88;;;2.20;;
23140;SDS011;11739;54.750;9.124;2023-05-17T02:54:14;8.55;;;2.47;;
23140;SDS011;11739;54.750;9.124;2023-05-17T02:56:39;7.40;;;1.88;;
23140;SDS011;11739;54.750;9.124;2023-05-17T02:59:05;7.93;;;2.45;;
23140;SDS011;11739;54.750;9.124;2023-05-17T03:01:30;8.52;;;2.25;;
23140;SDS011;11739;54.750;9.124;2023-05-17T03:03:55;9.38;;;2.40;;
23140;SDS011;11739;54.750;9.124;2023-05-17T03:06:21;7.20;;;2.15;;
23140;SDS011;11739;54.750;9.124;2023-05-17T03:08:46;5.97;;;1.88;;
23140;SDS011;11739;54.750;9.124;2023-05-17T03:11:11;6.93;;;2.00;;
23140;SDS011;11739;54.750;9.124;2023-05-17T03:13:37;8.10;;;2.17;;
23140;SDS011;11739;54.750;9.124;2023-05-17T03:16:02;6.32;;;2.10;;
23140;SDS011;11739;54.750;9.124;2023-05-17T03:18:27;6.72;;;1.92;;
23140;SDS011;11739;54.750;9.124;2023-05-17T03:20:53;8.85;;;2.40;;
23140;SDS011;11739;54.750;9.124;2023-05-17T03:23:18;6.40;;;2.03;;
23140;SDS011;11739;54.750;9.124;2023-05-17T03:25:43;9.75;;;2.28;;
23140;SDS011;11739;54.750;9.124;2023-05-17T03:28:08;9.13;;;2.17;;
23140;SDS011;11739;54.750;9.124;2023-05-17T03:30:34;7.10;;;2.22;;
23140;SDS011;11739;54.750;9.124;2023-05-17T03:32:59;9.05;;;2.83;;
23140;SDS011;11739;54.750;9.124;2023-05-17T03:35:24;7.88;;;2.38;;
23140;SDS011;11739;54.750;9.124;2023-05-17T03:37:50;5.70;;;2.28;;
23140;SDS011;11739;54.750;9.124;2023-05-17T03:40:15;7.88;;;2.58;;
23140;SDS011;11739;54.750;9.124;2023-05-17T03:42:40;6.10;;;2.00;;
23140;SDS011;11739;54.750;9.124;2023-05-17T03:45:06;10.73;;;2.47;;
23140;SDS011;11739;54.750;9.124;2023-05-17T03:47:31;9.65;;;2.60;;
23140;SDS011;11739;54.750;9.124;2023-05-17T03:49:57;10.13;;;2.67;;
23140;SDS011;11739;54.750;9.124;2023-05-17T03:52:22;10.00;;;2.33;;
23140;SDS011;11739;54.750;9.124;2023-05-17T03:54:47;9.95;;;2.20;;
23140;SDS011;11739;54.750;9.124;2023-05-17T03:57:12;10.25;;;2.38;;
23140;SDS011;11739;54.750;9.124;2023-05-17T03:59:38;8.80;;;2.50;;
23140;SDS011;11739;54.750;9.124;2023-05-17T04:02:03;6.85;;;2.60;;
23140;SDS011;11739;54.750;9.124;2023-05-17T04:04:28;12.77;;;3.15;;
23140;SDS011;11739;54.750;9.124;2023-05-17T04:06:54;9.77;;;2.65;;
23140;SDS011;11739;54.750;9.124;2023-05-17T04:09:19;9.95;;;2.95;;
23140;SDS011;11739;54.750;9.124;2023-05-17T04:11:44;8.00;;;2.30;;
23140;SDS011;11739;54.750;9.124;2023-05-17T04:14:10;8.43;;;2.50;;
23140;SDS011;11739;54.750;9.124;2023-05-17T04:16:35;9.15;;;2.70;;
23140;SDS011;11739;54.750;9.124;2023-05-17T04:19:00;9.15;;;2.75;;
23140;SDS011;11739;54.750;9.124;2023-05-17T04:21:26;7.60;;;2.60;;
23140;SDS011;11739;54.750;9.124;2023-05-17T04:23:51;9.25;;;2.85;;
23140;SDS011;11739;54.750;9.124;2023-05-17T04:26:16;7.25;;;2.60;;
23140;SDS011;11739;54.750;9.124;2023-05-17T04:28:41;8.25;;;2.85;;
23140;SDS011;11739;54.750;9.124;2023-05-17T04:31:07;9.93;;;2.75;;
23140;SDS011;11739;54.750;9.124;2023-05-17T04:33:32;10.43;;;2.67;;
23140;SDS011;11739;54.750;9.124;2023-05-17T04:35:58;13.32;;;2.88;;
23140;SDS011;11739;54.750;9.124;2023-05-17T04:38:23;6.95;;;2.22;;
23140;SDS011;11739;54.750;9.124;2023-05-17T04:40:48;7.55;;;2.70;;
23140;SDS011;11739;54.750;9.124;2023-05-17T04:43:14;8.52;;;2.45;;
23140;SDS011;11739;54.750;9.124;2023-05-17T04:45:39;8.68;;;2.88;;
23140;SDS011;11739;54.750;9.124;2023-05-17T04:48:04;6.55;;;2.53;;
23140;SDS011;11739;54.750;9.124;2023-05-17T04:50:30;9.45;;;2.80;;
23140;SDS011;11739;54.750;9.124;2023-05-17T04:52:55;10.40;;;2.35;;
23140;SDS011;11739;54.750;9.124;2023-05-17T04:55:20;7.45;;;2.70;;
23140;SDS011;11739;54.750;9.124;2023-05-17T04:57:46;9.63;;;2.65;;
23140;SDS011;11739;54.750;9.124;2023-05-17T05:00:11;10.38;;;2.85;;
23140;SDS011;11739;54.750;9.124;2023-05-17T05:02:37;7.13;;;2.70;;
23140;SDS011;11739;54.750;9.124;2023-05-17T05:05:03;9.73;;;2.75;;
23140;SDS011;11739;54.750;9.124;2023-05-17T05:07:29;12.30;;;2.95;;
23140;SDS011;11739;54.750;9.124;2023-05-17T05:09:54;10.85;;;2.85;;
23140;SDS011;11739;54.750;9.124;2023-05-17T05:12:20;7.88;;;3.00;;
23140;SDS011;11739;54.750;9.124;2023-05-17T05:14:45;9.43;;;3.13;;
23140;SDS011;11739;54.750;9.124;2023-05-17T05:17:10;9.60;;;2.58;;
23140;SDS011;11739;54.750;9.124;2023-05-17T05:19:36;9.65;;;2.92;;
23140;SDS011;11739;54.750;9.124;2023-05-17T05:22:01;8.35;;;2.42;;
23140;SDS011;11739;54.750;9.124;2023-05-17T05:24:26;9.90;;;2.55;;
23140;SDS011;11739;54.750;9.124;2023-05-17T05:26:52;7.50;;;2.60;;
23140;SDS011;11739;54.750;9.124;2023-05-17T05:29:17;9.68;;;2.92;;
23140;SDS011;11739;54.750;9.124;2023-05-17T05:31:42;8.27;;;2.30;;
23140;SDS011;11739;54.750;9.124;2023-05-17T05:34:08;8.00;;;2.95;;
23140;SDS011;11739;54.750;9.124;2023-05-17T05:36:33;8.95;;;2.70;;
23140;SDS011;11739;54.750;9.124;2023-05-17T05:38:58;12.02;;;2.92;;
23140;SDS011;11739;54.750;9.124;2023-05-17T05:41:24;7.97;;;2.55;;
23140;SDS011;11739;54.750;9.124;2023-05-17T05:43:49;7.20;;;2.42;;
23140;SDS011;11739;54.750;9.124;2023-05-17T05:46:14;10.45;;;2.85;;
23140;SDS011;11739;54.750;9.124;2023-05-17T05:48:40;8.82;;;2.65;;
23140;SDS011;11739;54.750;9.124;2023-05-17T05:51:05;9.40;;;2.33;;
23140;SDS011;11739;54.750;9.124;2023-05-17T05:53:30;6.55;;;2.63;;
23140;SDS011;11739;54.750;9.124;2023-05-17T05:55:56;7.25;;;2.42;;
23140;SDS011;11739;54.750;9.124;2023-05-17T05:58:21;9.20;;;2.65;;
23140;SDS011;11739;54.750;9.124;2023-05-17T06:00:46;9.05;;;2.67;;
23140;SDS011;11739;54.750;9.124;2023-05-17T06:03:11;10.60;;;2.95;;
23140;SDS011;11739;54.750;9.124;2023-05-17T06:05:38;6.93;;;2.33;;
23140;SDS011;11739;54.750;9.124;2023-05-17T06:08:03;8.73;;;2.45;;
23140;SDS011;11739;54.750;9.124;2023-05-17T06:10:28;7.50;;;2.10;;
23140;SDS011;11739;54.750;9.124;2023-05-17T06:12:54;8.48;;;2.33;;
23140;SDS011;11739;54.750;9.124;2023-05-17T06:15:19;6.82;;;2.40;;
23140;SDS011;11739;54.750;9.124;2023-05-17T06:17:44;9.45;;;2.58;;
23140;SDS011;11739;54.750;9.124;2023-05-17T06:20:10;6.30;;;2.10;;
23140;SDS011;11739;54.750;9.124;2023-05-17T06:22:35;9.35;;;2.58;;
23140;SDS011;11739;54.750;9.124;2023-05-17T06:25:00;8.30;;;1.95;;
23140;SDS011;11739;54.750;9.124;2023-05-17T06:27:26;7.18;;;2.25;;
23140;SDS011;11739;54.750;9.124;2023-05-17T06:29:51;7.13;;;2.38;;
23140;SDS011;11739;54.750;9.124;2023-05-17T06:32:16;9.60;;;2.40;;
23140;SDS011;11739;54.750;9.124;2023-05-17T06:34:42;6.47;;;2.08;;
23140;SDS011;11739;54.750;9.124;2023-05-17T06:37:07;5.78;;;1.77;;
23140;SDS011;11739;54.750;9.124;2023-05-17T06:39:32;6.13;;;2.10;;
23140;SDS011;11739;54.750;9.124;2023-05-17T06:41:58;5.97;;;1.70;;
23140;SDS011;11739;54.750;9.124;2023-05-17T06:44:23;4.88;;;2.03;;
23140;SDS011;11739;54.750;9.124;2023-05-17T06:46:48;6.85;;;1.98;;
23140;SDS011;11739;54.750;9.124;2023-05-17T06:49:13;7.88;;;2.40;;
23140;SDS011;11739;54.750;9.124;2023-05-17T06:51:39;6.07;;;1.70;;
23140;SDS011;11739;54.750;9.124;2023-05-17T06:54:04;6.68;;;1.73;;
23140;SDS011;11739;54.750;9.124;2023-05-17T06:56:29;7.75;;;2.45;;
23140;SDS011;11739;54.750;9.124;2023-05-17T06:58:55;5.50;;;1.90;;
23140;SDS011;11739;54.750;9.124;2023-05-17T07:01:20;5.88;;;2.33;;
23140;SDS011;11739;54.750;9.124;2023-05-17T07:03:45;6.13;;;2.15;;
23140;SDS011;11739;54.750;9.124;2023-05-17T07:06:10;7.53;;;1.90;;
23140;SDS011;11739;54.750;9.124;2023-05-17T07:08:36;3.95;;;1.85;;
23140;SDS011;11739;54.750;9.124;2023-05-17T07:11:01;5.82;;;2.03;;
23140;SDS011;11739;54.750;9.124;2023-05-17T07:13:26;7.60;;;2.10;;
23140;SDS011;11739;54.750;9.124;2023-05-17T07:15:52;5.25;;;1.70;;
23140;SDS011;11739;54.750;9.124;2023-05-17T07:18:17;8.07;;;2.42;;
23140;SDS011;11739;54.750;9.124;2023-05-17T07:20:42;6.63;;;1.92;;
23140;SDS011;11739;54.750;9.124;2023-05-17T07:23:08;3.47;;;1.52;;
23140;SDS011;11739;54.750;9.124;2023-05-17T07:25:33;7.63;;;2.28;;
23140;SDS011;11739;54.750;9.124;2023-05-17T07:27:58;4.80;;;1.80;;
23140;SDS011;11739;54.750;9.124;2023-05-17T07:30:23;7.75;;;2.13;;
23140;SDS011;11739;54.750;9.124;2023-05-17T07:32:49;6.03;;;1.98;;
23140;SDS011;11739;54.750;9.124;2023-05-17T07:35:14;4.90;;;1.65;;
23140;SDS011;11739;54.750;9.124;2023-05-17T07:37:39;4.45;;;1.83;;
23140;SDS011;11739;54.750;9.124;2023-05-17T07:40:05;6.90;;;2.13;;
23140;SDS011;11739;54.750;9.124;2023-05-17T07:42:31;5.63;;;1.90;;
23140;SDS011;11739;54.750;9.124;2023-05-17T07:44:57;7.45;;;2.00;;
23140;SDS011;11739;54.750;9.124;2023-05-17T07:47:22;6.22;;;2.03;;
23140;SDS011;11739;54.750;9.124;2023-05-17T07:49:47;4.38;;;1.77;;
23140;SDS011;11739;54.750;9.124;2023-05-17T07:52:13;7.88;;;2.20;;
23140;SDS011;11739;54.750;9.124;2023-05-17T07:54:38;7.00;;;1.85;;
23140;SDS011;11739;54.750;9.124;2023-05-17T07:57:03;5.25;;;1.70;;
23140;SDS011;11739;54.750;9.124;2023-05-17T07:59:28;5.70;;;1.90;;
23140;SDS011;11739;54.750;9.124;2023-05-17T08:01:55;9.25;;;1.90;;
23140;SDS011;11739;54.750;9.124;2023-05-17T08:04:20;7.88;;;2.13;;
23140;SDS011;11739;54.750;9.124;2023-05-17T08:06:46;4.97;;;2.00;;
23140;SDS011;11739;54.750;9.124;2023-05-17T08:09:11;5.22;;;1.80;;
23140;SDS011;11739;54.750;9.124;2023-05-17T08:11:37;6.65;;;2.17;;
23140;SDS011;11739;54.750;9.124;2023-05-17T08:14:02;4.10;;;2.28;;
23140;SDS011;11739;54.750;9.124;2023-05-17T08:16:27;7.22;;;2.20;;
23140;SDS011;11739;54.750;9.124;2023-05-17T08:18:52;7.38;;;1.90;;
23140;SDS011;11739;54.750;9.124;2023-05-17T08:21:18;8.45;;;2.38;;
23140;SDS011;11739;54.750;9.124;2023-05-17T08:23:43;6.03;;;2.30;;
23140;SDS011;11739;54.750;9.124;2023-05-17T08:26:08;4.30;;;1.80;;
23140;SDS011;11739;54.750;9.124;2023-05-17T08:28:34;4.68;;;1.90;;
23140;SDS011;11739;54.750;9.124;2023-05-17T08:30:59;8.57;;;1.92;;
23140;SDS011;11739;54.750;9.124;2023-05-17T08:33:24;7.25;;;1.88;;
23140;SDS011;11739;54.750;9.124;2023-05-17T08:35:50;6.75;;;2.05;;
23140;SDS011;11739;54.750;9.124;2023-05-17T08:38:16;10.43;;;1.95;;
23140;SDS011;11739;54.750;9.124;2023-05-17T08:40:41;5.78;;;2.00;;
23140;SDS011;11739;54.750;9.124;2023-05-17T08:43:07;7.15;;;1.98;;
23140;SDS011;11739;54.750;9.124;2023-05-17T08:45:33;6.40;;;2.20;;
23140;SDS011;11739;54.750;9.124;2023-05-17T08:47:59;7.25;;;1.70;;
23140;SDS011;11739;54.750;9.124;2023-05-17T08:50:24;5.25;;;1.75;;
23140;SDS011;11739;54.750;9.124;2023-05-17T08:52:51;5.57;;;1.92;;
23140;SDS011;11739;54.750;9.124;2023-05-17T08:55:16;4.38;;;1.40;;
23140;SDS011;11739;54.750;9.124;2023-05-17T08:57:42;8.50;;;1.92;;
23140;SDS011;11739;54.750;9.124;2023-05-17T09:00:09;3.88;;;1.48;;
23140;SDS011;11739;54.750;9.124;2023-05-17T09:02:35;5.55;;;1.40;;
23140;SDS011;11739;54.750;9.124;2023-05-17T09:05:01;6.18;;;1.80;;
23140;SDS011;11739;54.750;9.124;2023-05-17T09:07:26;4.70;;;1.38;;
23140;SDS011;11739;54.750;9.124;2023-05-17T09:09:52;3.38;;;1.67;;
23140;SDS011;11739;54.750;9.124;2023-05-17T09:12:18;3.67;;;1.48;;
23140;SDS011;11739;54.750;9.124;2023-05-17T09:14:46;5.50;;;1.50;;
23140;SDS011;11739;54.750;9.124;2023-05-17T09:17:13;3.00;;;1.20;;
23140;SDS011;11739;54.750;9.124;2023-05-17T09:19:42;4.05;;;1.50;;
23140;SDS011;11739;54.750;9.124;2023-05-17T09:22:08;6.90;;;1.83;;
23140;SDS011;11739;54.750;9.124;2023-05-17T09:24:36;4.78;;;1.73;;
23140;SDS011;11739;54.750;9.124;2023-05-17T09:27:04;3.35;;;1.60;;
23140;SDS011;11739;54.750;9.124;2023-05-17T09:29:30;4.22;;;1.40;;
23140;SDS011;11739;54.750;9.124;2023-05-17T09:31:55;4.20;;;1.40;;
23140;SDS011;11739;54.750;9.124;2023-05-17T09:34:23;4.25;;;1.52;;
23140;SDS011;11739;54.750;9.124;2023-05-17T09:36:48;3.58;;;1.50;;
23140;SDS011;11739;54.750;9.124;2023-05-17T09:39:14;4.13;;;1.48;;
23140;SDS011;11739;54.750;9.124;2023-05-17T09:41:40;3.17;;;1.60;;
23140;SDS011;11739;54.750;9.124;2023-05-17T09:44:09;4.55;;;1.70;;
23140;SDS011;11739;54.750;9.124;2023-05-17T09:46:36;4.82;;;1.65;;
23140;SDS011;11739;54.750;9.124;2023-05-17T09:49:02;2.45;;;1.38;;
23140;SDS011;11739;54.750;9.124;2023-05-17T09:51:31;3.65;;;1.70;;
23140;SDS011;11739;54.750;9.124;2023-05-17T09:53:57;4.50;;;1.67;;
23140;SDS011;11739;54.750;9.124;2023-05-17T09:56:23;4.65;;;1.25;;
23140;SDS011;11739;54.750;9.124;2023-05-17T09:58:51;3.40;;;1.55;;
23140;SDS011;11739;54.750;9.124;2023-05-17T10:01:17;3.75;;;1.70;;
23140;SDS011;11739;54.750;9.124;2023-05-17T10:03:42;7.10;;;1.67;;
23140;SDS011;11739;54.750;9.124;2023-05-17T10:06:07;3.00;;;1.42;;
23140;SDS011;11739;54.750;9.124;2023-05-17T10:08:33;3.35;;;1.63;;
23140;SDS011;11739;54.750;9.124;2023-05-17T10:10:59;4.20;;;1.27;;
23140;SDS011;11739;54.750;9.124;2023-05-17T10:13:36;2.95;;;1.40;;
23140;SDS011;11739;54.750;9.124;2023-05-17T10:16:26;4.85;;;1.40;;
23140;SDS011;11739;54.750;9.124;2023-05-17T10:18:52;3.58;;;1.40;;
23140;SDS011;11739;54.750;9.124;2023-05-17T10:21:17;7.25;;;2.03;;
23140;SDS011;11739;54.750;9.124;2023-05-17T10:23:43;4.05;;;1.80;;
23140;SDS011;11739;54.750;9.124;2023-05-17T10:26:09;5.55;;;1.77;;
23140;SDS011;11739;54.750;9.124;2023-05-17T10:28:35;7.47;;;1.70;;
23140;SDS011;11739;54.750;9.124;2023-05-17T10:31:01;7.80;;;1.77;;
23140;SDS011;11739;54.750;9.124;2023-05-17T10:33:27;4.07;;;1.58;;
23140;SDS011;11739;54.750;9.124;2023-05-17T10:35:53;4.38;;;1.70;;
23140;SDS011;11739;54.750;9.124;2023-05-17T10:38:19;5.22;;;1.85;;
23140;SDS011;11739;54.750;9.124;2023-05-17T10:40:45;4.82;;;1.50;;
23140;SDS011;11739;54.750;9.124;2023-05-17T10:43:10;4.13;;;1.50;;
23140;SDS011;11739;54.750;9.124;2023-05-17T10:45:36;2.75;;;1.10;;
23140;SDS011;11739;54.750;9.124;2023-05-17T10:48:05;5.43;;;1.40;;
23140;SDS011;11739;54.750;9.124;2023-05-17T10:50:30;6.82;;;1.48;;
23140;SDS011;11739;54.750;9.124;2023-05-17T10:52:56;4.97;;;1.30;;
23140;SDS011;11739;54.750;9.124;2023-05-17T10:55:23;3.72;;;1.20;;
23140;SDS011;11739;54.750;9.124;2023-05-17T11:00:43;3.75;;;1.38;;
23140;SDS011;11739;54.750;9.124;2023-05-17T11:03:15;4.00;;;1.30;;
23140;SDS011;11739;54.750;9.124;2023-05-17T11:08:27;2.17;;;0.93;;
23140;SDS011;11739;54.750;9.124;2023-05-17T11:11:06;2.92;;;1.20;;
23140;SDS011;11739;54.750;9.124;2023-05-17T11:13:32;7.43;;;1.55;;
23140;SDS011;11739;54.750;9.124;2023-05-17T11:16:07;7.45;;;1.90;;
23140;SDS011;11739;54.750;9.124;2023-05-17T11:18:45;3.97;;;1.52;;
23140;SDS011;11739;54.750;9.124;2023-05-17T11:21:14;4.90;;;1.63;;
23140;SDS011;11739;54.750;9.124;2023-05-17T11:23:39;3.35;;;1.63;;
23140;SDS011;11739;54.750;9.124;2023-05-17T11:26:18;3.63;;;1.50;;
23140;SDS011;11739;54.750;9.124;2023-05-17T11:28:46;5.35;;;1.77;;
23140;SDS011;11739;54.750;9.124;2023-05-17T11:31:11;5.60;;;1.50;;
23140;SDS011;11739;54.750;9.124;2023-05-17T11:33:37;4.78;;;1.60;;
23140;SDS011;11739;54.750;9.124;2023-05-17T11:36:13;4.68;;;1.42;;
23140;SDS011;11739;54.750;9.124;2023-05-17T11:38:39;5.57;;;1.50;;
23140;SDS011;11739;54.750;9.124;2023-05-17T11:41:18;6.05;;;1.70;;
23140;SDS011;11739;54.750;9.124;2023-05-17T11:43:45;8.52;;;1.95;;
23140;SDS011;11739;54.750;9.124;2023-05-17T11:46:16;4.68;;;1.50;;
23140;SDS011;11739;54.750;9.124;2023-05-17T11:48:43;4.57;;;1.38;;
23140;SDS011;11739;54.750;9.124;2023-05-17T11:51:09;5.05;;;1.80;;
23140;SDS011;11739;54.750;9.124;2023-05-17T11:53:38;5.95;;;1.50;;
23140;SDS011;11739;54.750;9.124;2023-05-17T11:56:04;4.45;;;1.70;;
23140;SDS011;11739;54.750;9.124;2023-05-17T11:58:29;4.88;;;1.50;;
23140;SDS011;11739;54.750;9.124;2023-05-17T12:00:56;4.13;;;1.50;;
23140;SDS011;11739;54.750;9.124;2023-05-17T12:03:23;7.43;;;1.73;;
23140;SDS011;11739;54.750;9.124;2023-05-17T12:06:11;4.82;;;1.70;;
23140;SDS011;11739;54.750;9.124;2023-05-17T12:08:37;5.55;;;1.70;;
23140;SDS011;11739;54.750;9.124;2023-05-17T12:11:03;4.53;;;1.55;;
23140;SDS011;11739;54.750;9.124;2023-05-17T12:13:30;5.00;;;1.60;;
23140;SDS011;11739;54.750;9.124;2023-05-17T12:15:58;5.15;;;1.73;;
23140;SDS011;11739;54.750;9.124;2023-05-17T12:18:35;4.60;;;1.85;;
23140;SDS011;11739;54.750;9.124;2023-05-17T12:21:00;6.43;;;1.80;;
23140;SDS011;11739;54.750;9.124;2023-05-17T12:23:29;5.28;;;1.65;;
23140;SDS011;11739;54.750;9.124;2023-05-17T12:28:30;5.45;;;1.67;;
23140;SDS011;11739;54.750;9.124;2023-05-17T12:30:55;5.75;;;2.10;;
23140;SDS011;11739;54.750;9.124;2023-05-17T12:33:21;5.82;;;1.90;;
23140;SDS011;11739;54.750;9.124;2023-05-17T12:35:46;7.18;;;1.90;;
23140;SDS011;11739;54.750;9.124;2023-05-17T12:38:12;5.47;;;2.33;;
23140;SDS011;11739;54.750;9.124;2023-05-17T12:40:38;7.18;;;2.15;;
23140;SDS011;11739;54.750;9.124;2023-05-17T12:43:03;6.68;;;2.00;;
23140;SDS011;11739;54.750;9.124;2023-05-17T12:45:29;4.05;;;1.70;;
23140;SDS011;11739;54.750;9.124;2023-05-17T12:47:54;4.75;;;2.08;;
23140;SDS011;11739;54.750;9.124;2023-05-17T12:50:29;4.55;;;1.70;;
23140;SDS011;11739;54.750;9.124;2023-05-17T12:52:55;5.07;;;1.67;;
23140;SDS011;11739;54.750;9.124;2023-05-17T12:55:20;5.45;;;1.88;;
23140;SDS011;11739;54.750;9.124;2023-05-17T12:57:49;5.47;;;1.80;;
23140;SDS011;11739;54.750;9.124;2023-05-17T13:00:15;4.65;;;1.63;;
23140;SDS011;11739;54.750;9.124;2023-05-17T13:02:41;7.05;;;2.20;;
23140;SDS011;11739;54.750;9.124;2023-05-17T13:05:15;7.78;;;2.20;;
23140;SDS011;11739;54.750;9.124;2023-05-17T13:07:41;4.85;;;1.60;;
23140;SDS011;11739;54.750;9.124;2023-05-17T13:10:27;8.70;;;2.28;;
23140;SDS011;11739;54.750;9.124;2023-05-17T13:12:58;5.72;;;2.10;;
23140;SDS011;11739;54.750;9.124;2023-05-17T13:15:27;5.85;;;1.92;;
23140;SDS011;11739;54.750;9.124;2023-05-17T13:17:53;5.63;;;1.85;;
23140;SDS011;11739;54.750;9.124;2023-05-17T13:20:19;6.75;;;1.88;;
23140;SDS011;11739;54.750;9.124;2023-05-17T13:22:44;4.28;;;1.80;;
23140;SDS011;11739;54.750;9.124;2023-05-17T13:25:10;6.50;;;1.63;;
23140;SDS011;11739;54.750;9.124;2023-05-17T13:27:35;4.70;;;1.50;;
23140;SDS011;11739;54.750;9.124;2023-05-17T13:30:01;3.53;;;1.67;;
23140;SDS011;11739;54.750;9.124;2023-05-17T13:32:26;4.00;;;1.88;;
23140;SDS011;11739;54.750;9.124;2023-05-17T13:34:51;5.57;;;1.88;;
23140;SDS011;11739;54.750;9.124;2023-05-17T13:37:17;4.90;;;1.55;;
23140;SDS011;11739;54.750;9.124;2023-05-17T13:39:42;6.22;;;1.90;;
23140;SDS011;11739;54.750;9.124;2023-05-17T13:42:07;5.78;;;1.95;;
23140;SDS011;11739;54.750;9.124;2023-05-17T13:44:33;5.10;;;1.90;;
23140;SDS011;11739;54.750;9.124;2023-05-17T13:46:59;2.67;;;1.50;;
23140;SDS011;11739;54.750;9.124;2023-05-17T13:49:24;8.90;;;3.00;;
23140;SDS011;11739;54.750;9.124;2023-05-17T13:51:49;4.93;;;2.20;;
23140;SDS011;11739;54.750;9.124;2023-05-17T13:54:15;5.35;;;2.03;;
23140;SDS011;11739;54.750;9.124;2023-05-17T13:56:40;7.00;;;2.47;;
23140;SDS011;11739;54.750;9.124;2023-05-17T13:59:05;7.05;;;2.30;;
23140;SDS011;11739;54.750;9.124;2023-05-17T14:01:30;4.50;;;2.08;;
23140;SDS011;11739;54.750;9.124;2023-05-17T14:03:56;4.47;;;1.73;;
23140;SDS011;11739;54.750;9.124;2023-05-17T14:06:21;5.47;;;2.00;;
23140;SDS011;11739;54.750;9.124;2023-05-17T14:08:46;4.45;;;1.83;;
23140;SDS011;11739;54.750;9.124;2023-05-17T14:11:12;4.38;;;1.63;;
23140;SDS011;11739;54.750;9.124;2023-05-17T14:13:37;3.90;;;1.55;;
23140;SDS011;11739;54.750;9.124;2023-05-17T14:16:02;5.00;;;1.60;;
23140;SDS011;11739;54.750;9.124;2023-05-17T14:18:28;4.05;;;1.75;;
23140;SDS011;11739;54.750;9.124;2023-05-17T14:20:53;3.92;;;1.50;;
23140;SDS011;11739;54.750;9.124;2023-05-17T14:23:19;5.72;;;2.05;;
23140;SDS011;11739;54.750;9.124;2023-05-17T14:25:45;5.38;;;1.77;;
23140;SDS011;11739;54.750;9.124;2023-05-17T14:28:11;5.45;;;1.98;;
23140;SDS011;11739;54.750;9.124;2023-05-17T14:30:36;9.05;;;2.00;;
23140;SDS011;11739;54.750;9.124;2023-05-17T14:33:01;6.18;;;1.80;;
23140;SDS011;11739;54.750;9.124;2023-05-17T14:35:27;3.88;;;1.38;;
23140;SDS011;11739;54.750;9.124;2023-05-17T14:37:52;5.82;;;1.80;;
23140;SDS011;11739;54.750;9.124;2023-05-17T14:40:17;5.82;;;1.63;;
23140;SDS011;11739;54.750;9.124;2023-05-17T14:42:43;4.15;;;1.75;;
23140;SDS011;11739;54.750;9.124;2023-05-17T14:45:08;4.18;;;1.70;;
23140;SDS011;11739;54.750;9.124;2023-05-17T14:47:33;5.00;;;1.42;;
23140;SDS011;11739;54.750;9.124;2023-05-17T14:49:58;2.83;;;1.40;;
23140;SDS011;11739;54.750;9.124;2023-05-17T14:52:24;3.92;;;1.40;;
23140;SDS011;11739;54.750;9.124;2023-05-17T14:54:49;3.65;;;1.50;;
23140;SDS011;11739;54.750;9.124;2023-05-17T14:57:14;5.95;;;1.60;;